Time;durP1;ratioP1;P1;durP2;ratioP2;P2;SDS_P1;SDS_P2;PMS_P1;PMS_P2;Temp;Humidity;BMP_temperature;BMP_pressure;BME280_temperature;BME280_humidity;BME280_pressure;Samples;Min_cycle;Max_cycle;Signal;HPM_P1;HPM_P2
2023/09/25 00:00:32;;;;;;;1.70;1.60;;;20.70;65.20;;;;;;5060900;28;20075;-77
2023/09/25 00:02:59;;;;;;;1.60;1.50;;;20.70;65.30;;;;;;5067252;28;20039;-77
2023/09/25 00:05:25;;;;;;;1.70;1.60;;;20.70;65.20;;;;;;5053319;28;20094;-77
2023/09/25 00:07:51;;;;;;;1.48;1.38;;;20.70;65.30;;;;;;5061858;28;20155;-77
2023/09/25 00:10:17;;;;;;;1.33;1.33;;;20.70;65.30;;;;;;5063849;28;20475;-77
2023/09/25 00:12:43;;;;;;;1.50;1.40;;;20.70;65.20;;;;;;5062190;28;20595;-77
2023/09/25 00:15:09;;;;;;;1.40;1.30;;;20.70;65.30;;;;;;5064730;28;20041;-77
2023/09/25 00:17:35;;;;;;;2.05;1.95;;;20.70;65.30;;;;;;5063117;28;20044;-77
2023/09/25 00:20:02;;;;;;;1.63;1.52;;;20.70;65.30;;;;;;5088127;28;20051;-77
2023/09/25 00:22:28;;;;;;;2.00;1.90;;;20.70;65.30;;;;;;5063209;28;20469;-77
2023/09/25 00:24:54;;;;;;;1.55;1.45;;;20.70;65.30;;;;;;5060989;28;20171;-77
2023/09/25 00:27:19;;;;;;;1.67;1.58;;;20.70;65.50;;;;;;5056753;28;20056;-78
2023/09/25 00:29:45;;;;;;;1.77;1.67;;;20.70;65.40;;;;;;5062310;28;20238;-77
2023/09/25 00:32:10;;;;;;;1.60;1.33;;;20.70;65.40;;;;;;5062717;28;20844;-77
2023/09/25 00:34:36;;;;;;;1.23;1.23;;;20.70;65.60;;;;;;5065283;28;20040;-77
2023/09/25 00:37:02;;;;;;;1.70;1.60;;;20.70;65.60;;;;;;5065916;28;20037;-77
2023/09/25 00:39:27;;;;;;;1.45;1.40;;;20.70;65.50;;;;;;5062487;28;20490;-77
2023/09/25 00:41:53;;;;;;;1.50;1.40;;;20.70;65.70;;;;;;5063651;28;20044;-77
2023/09/25 00:44:18;;;;;;;1.70;1.60;;;20.70;65.70;;;;;;5062209;28;20569;-77
2023/09/25 00:46:44;;;;;;;1.40;1.30;;;20.70;65.60;;;;;;5062518;28;20682;-77
2023/09/25 00:49:10;;;;;;;1.40;1.30;;;20.70;65.70;;;;;;5063090;28;20029;-77
2023/09/25 00:51:35;;;;;;;1.70;1.60;;;20.70;65.80;;;;;;5063900;28;20051;-77
2023/09/25 00:54:01;;;;;;;1.77;1.67;;;20.70;65.80;;;;;;5063181;28;20047;-77
2023/09/25 00:56:26;;;;;;;1.48;1.38;;;20.70;65.80;;;;;;5061009;28;20044;-78
2023/09/25 00:58:52;;;;;;;1.80;1.70;;;20.70;65.70;;;;;;5063263;28;20056;-77
2023/09/25 01:01:19;;;;;;;1.60;1.50;;;20.70;65.70;;;;;;5059162;28;20540;-77
2023/09/25 01:03:44;;;;;;;1.48;1.38;;;20.70;65.90;;;;;;5058760;28;20040;-77
2023/09/25 01:06:10;;;;;;;1.38;1.38;;;20.70;66.10;;;;;;5061202;28;20048;-77
2023/09/25 01:08:36;;;;;;;1.48;1.38;;;20.70;66.70;;;;;;5061448;28;20048;-77
2023/09/25 01:11:02;;;;;;;1.60;1.50;;;20.70;66.50;;;;;;5053433;28;20052;-77
2023/09/25 01:13:28;;;;;;;1.40;1.30;;;20.70;66.00;;;;;;5059942;28;20041;-78
2023/09/25 01:15:54;;;;;;;1.27;1.17;;;20.70;65.80;;;;;;5061556;28;20131;-77
2023/09/25 01:18:19;;;;;;;1.50;1.40;;;20.70;65.90;;;;;;5059977;28;20136;-77
2023/09/25 01:20:45;;;;;;;1.65;1.55;;;20.70;65.90;;;;;;5059957;28;20060;-77
2023/09/25 01:23:11;;;;;;;1.30;1.30;;;20.70;65.90;;;;;;5058968;28;20139;-77
2023/09/25 01:25:36;;;;;;;1.60;1.50;;;20.70;66.00;;;;;;5053705;28;20522;-77
2023/09/25 01:28:03;;;;;;;1.70;1.60;;;20.70;65.90;;;;;;5057289;28;20090;-76
2023/09/25 01:30:30;;;;;;;1.73;1.63;;;20.70;65.90;;;;;;5053941;28;20098;-77
2023/09/25 01:32:55;;;;;;;1.50;1.40;;;20.70;66.20;;;;;;5065638;28;20463;-77
2023/09/25 01:35:26;;;;;;;1.70;1.60;;;20.70;66.10;;;;;;5061073;28;20127;-77
2023/09/25 01:37:59;;;;;;;1.80;1.70;;;20.70;66.90;;;;;;5063467;28;20056;-77
2023/09/25 01:40:24;;;;;;;1.23;1.23;;;20.70;66.20;;;;;;5059606;28;20644;-77
2023/09/25 01:42:50;;;;;;;1.50;1.40;;;20.70;66.20;;;;;;5059764;28;20144;-77
2023/09/25 01:45:18;;;;;;;1.88;1.48;;;20.70;66.20;;;;;;5062236;28;20529;-77
2023/09/25 01:47:49;;;;;;;1.70;1.60;;;20.70;66.30;;;;;;5062932;28;21588;-77
2023/09/25 01:50:16;;;;;;;1.63;1.52;;;20.70;67.20;;;;;;5063368;28;20417;-76
2023/09/25 01:52:42;;;;;;;1.67;1.58;;;20.70;66.30;;;;;;5058183;28;20135;-77
2023/09/25 01:55:08;;;;;;;1.60;1.50;;;20.70;66.40;;;;;;5044362;28;20466;-76
2023/09/25 01:57:34;;;;;;;1.60;1.50;;;20.70;66.60;;;;;;5059642;28;20055;-76
2023/09/25 02:00:00;;;;;;;1.20;1.20;;;20.70;66.40;;;;;;5061001;28;20040;-77
2023/09/25 02:02:25;;;;;;;1.42;1.33;;;20.70;66.50;;;;;;5059366;28;20387;-77
2023/09/25 02:04:51;;;;;;;1.20;1.15;;;20.70;66.30;;;;;;5054196;28;20395;-77
2023/09/25 02:07:18;;;;;;;1.65;1.55;;;20.70;66.50;;;;;;5058979;28;20044;-77
2023/09/25 02:09:45;;;;;;;1.52;1.42;;;20.70;66.50;;;;;;5056871;28;20522;-76
2023/09/25 02:12:11;;;;;;;1.30;1.30;;;20.70;66.50;;;;;;5060694;28;20048;-77
2023/09/25 02:14:36;;;;;;;1.05;1.05;;;20.70;66.40;;;;;;5062184;28;20127;-77
2023/09/25 02:17:02;;;;;;;1.20;1.20;;;20.70;66.50;;;;;;5059058;28;20574;-77
2023/09/25 02:19:28;;;;;;;1.35;1.25;;;20.70;66.70;;;;;;5059547;28;20480;-77
2023/09/25 02:21:54;;;;;;;1.38;1.33;;;20.70;66.80;;;;;;5057113;28;20271;-77
2023/09/25 02:24:21;;;;;;;1.55;1.45;;;20.60;66.80;;;;;;5064612;28;20537;-77
2023/09/25 02:26:46;;;;;;;1.30;1.20;;;20.70;66.70;;;;;;5066708;28;20101;-76
2023/09/25 02:29:12;;;;;;;1.40;1.30;;;20.70;66.80;;;;;;5063706;28;20531;-77
2023/09/25 02:31:38;;;;;;;1.30;1.30;;;20.70;66.80;;;;;;5062750;28;20041;-76
2023/09/25 02:34:03;;;;;;;1.27;1.17;;;20.70;66.80;;;;;;5061570;28;20569;-77
2023/09/25 02:36:29;;;;;;;1.05;1.05;;;20.70;67.00;;;;;;5065424;28;20502;-77
2023/09/25 02:38:54;;;;;;;1.02;1.02;;;20.70;66.90;;;;;;5067010;28;20040;-77
2023/09/25 02:41:20;;;;;;;1.48;1.25;;;20.70;66.90;;;;;;5062631;28;20029;-76
2023/09/25 02:43:45;;;;;;;1.38;1.30;;;20.70;67.00;;;;;;5062578;28;20040;-77
2023/09/25 02:46:11;;;;;;;1.30;1.30;;;20.70;67.20;;;;;;5063855;28;20135;-77
2023/09/25 02:48:37;;;;;;;1.60;1.50;;;20.70;66.90;;;;;;5062706;28;20045;-77
2023/09/25 02:51:02;;;;;;;1.30;1.20;;;20.70;66.90;;;;;;5066974;28;20480;-77
2023/09/25 02:53:28;;;;;;;0.90;0.90;;;20.70;67.10;;;;;;5063762;28;20053;-79
2023/09/25 02:55:54;;;;;;;1.20;1.20;;;20.70;67.00;;;;;;5065182;28;20554;-76
2023/09/25 02:58:19;;;;;;;5.88;1.35;;;20.70;67.10;;;;;;5063430;28;20048;-77
2023/09/25 03:00:45;;;;;;;0.95;0.95;;;20.70;67.10;;;;;;5052825;28;20123;-77
2023/09/25 03:03:11;;;;;;;1.40;1.30;;;20.70;67.30;;;;;;5063920;28;20032;-77
2023/09/25 03:05:36;;;;;;;1.38;1.27;;;20.70;67.00;;;;;;5092404;28;20072;-77
2023/09/25 03:08:03;;;;;;;0.98;0.98;;;20.70;67.00;;;;;;5059370;28;20044;-77
2023/09/25 03:10:28;;;;;;;0.95;0.95;;;20.70;67.00;;;;;;5065002;28;20044;-77
2023/09/25 03:12:54;;;;;;;1.02;1.02;;;20.60;67.10;;;;;;5093578;28;20056;-76
2023/09/25 03:15:20;;;;;;;1.30;1.30;;;20.60;67.10;;;;;;5063180;28;20064;-76
2023/09/25 03:17:45;;;;;;;1.17;1.17;;;20.70;67.40;;;;;;5066266;28;20045;-77
2023/09/25 03:20:17;;;;;;;1.67;1.42;;;20.70;67.60;;;;;;5061572;28;20421;-77
2023/09/25 03:22:43;;;;;;;1.10;1.10;;;20.70;67.20;;;;;;5060145;28;20051;-77
2023/09/25 03:25:08;;;;;;;0.90;0.90;;;20.60;67.20;;;;;;5064588;28;20053;-77
2023/09/25 03:27:34;;;;;;;1.08;1.02;;;20.70;67.20;;;;;;5062679;28;20045;-76
2023/09/25 03:30:00;;;;;;;1.92;1.25;;;20.70;67.40;;;;;;5063476;28;20056;-77
2023/09/25 03:32:25;;;;;;;1.40;1.30;;;20.70;67.30;;;;;;5061120;28;20061;-77
2023/09/25 03:34:51;;;;;;;0.90;0.90;;;20.60;67.20;;;;;;5058624;28;20504;-77
2023/09/25 03:37:16;;;;;;;1.60;1.50;;;20.70;67.30;;;;;;5057845;28;20120;-77
2023/09/25 03:39:42;;;;;;;0.90;0.90;;;20.70;67.30;;;;;;5056296;28;20033;-77
2023/09/25 03:42:07;;;;;;;1.02;1.02;;;20.70;67.40;;;;;;5062096;28;20060;-77
2023/09/25 03:44:33;;;;;;;1.05;1.05;;;20.70;67.40;;;;;;5054541;28;20109;-77
2023/09/25 03:46:59;;;;;;;1.45;1.40;;;20.70;67.40;;;;;;5063183;28;20044;-76
2023/09/25 03:49:25;;;;;;;1.20;1.10;;;20.70;67.40;;;;;;5059814;28;20045;-77
2023/09/25 03:51:50;;;;;;;1.10;1.10;;;20.60;67.30;;;;;;5061776;28;20525;-76
2023/09/25 03:54:16;;;;;;;1.58;1.42;;;20.60;67.40;;;;;;5065037;28;20406;-77
2023/09/25 03:56:42;;;;;;;1.08;1.08;;;20.60;67.50;;;;;;5065571;28;20108;-76
2023/09/25 03:59:08;;;;;;;1.30;1.20;;;20.60;67.60;;;;;;5030455;28;20035;-76
2023/09/25 04:01:33;;;;;;;1.38;1.33;;;20.60;67.60;;;;;;5063864;28;20063;-77
2023/09/25 04:03:59;;;;;;;1.10;1.10;;;20.60;67.70;;;;;;5063033;28;20040;-77
2023/09/25 04:06:24;;;;;;;1.17;1.17;;;20.60;67.60;;;;;;5060437;28;20033;-77
2023/09/25 04:08:50;;;;;;;0.98;0.98;;;20.60;67.60;;;;;;5064433;28;20045;-77
2023/09/25 04:11:16;;;;;;;1.10;1.00;;;20.60;67.60;;;;;;5062916;28;20418;-77
2023/09/25 04:13:41;;;;;;;0.82;0.82;;;20.60;67.60;;;;;;5060113;28;20138;-77
2023/09/25 04:16:07;;;;;;;1.45;1.35;;;20.60;67.60;;;;;;5063016;28;20512;-77
2023/09/25 04:18:32;;;;;;;0.98;0.98;;;20.60;67.70;;;;;;5059959;28;20115;-79
2023/09/25 04:21:05;;;;;;;1.35;1.25;;;20.60;67.60;;;;;;5065462;28;20554;-77
2023/09/25 04:23:31;;;;;;;0.87;0.87;;;20.60;67.60;;;;;;5063508;28;20279;-77
2023/09/25 04:26:00;;;;;;;1.35;1.25;;;20.60;67.60;;;;;;5062887;28;20529;-76
2023/09/25 04:28:28;;;;;;;1.35;1.27;;;20.60;67.60;;;;;;5059930;28;20411;-76
2023/09/25 04:30:54;;;;;;;1.00;1.00;;;20.60;67.70;;;;;;5061125;28;20059;-77
2023/09/25 04:33:20;;;;;;;1.10;1.10;;;20.60;67.60;;;;;;5062929;28;20158;-76
2023/09/25 04:35:46;;;;;;;1.00;1.00;;;20.60;67.90;;;;;;5062619;28;20028;-77
2023/09/25 04:38:12;;;;;;;0.82;0.82;;;20.60;67.80;;;;;;5056357;28;20056;-77
2023/09/25 04:40:38;;;;;;;0.90;0.90;;;20.60;67.90;;;;;;5044123;28;20916;-77
2023/09/25 04:43:03;;;;;;;1.08;1.08;;;20.60;67.80;;;;;;5060119;28;20037;-77
2023/09/25 04:45:29;;;;;;;1.00;1.00;;;20.60;67.80;;;;;;5057252;28;20047;-77
2023/09/25 04:47:55;;;;;;;0.98;0.98;;;20.60;67.80;;;;;;5063654;28;20472;-77
2023/09/25 04:50:21;;;;;;;0.90;0.90;;;20.60;67.90;;;;;;5061601;28;20043;-77
2023/09/25 04:52:48;;;;;;;0.90;0.90;;;20.60;67.80;;;;;;5059719;28;20125;-77
2023/09/25 04:55:14;;;;;;;1.05;0.95;;;20.60;67.90;;;;;;5062682;28;20040;-77
2023/09/25 04:57:44;;;;;;;0.90;0.90;;;20.60;68.00;;;;;;5061294;28;20032;-76
2023/09/25 05:00:14;;;;;;;0.80;0.80;;;20.60;68.20;;;;;;5060683;28;20041;-76
2023/09/25 05:02:41;;;;;;;0.93;0.93;;;20.60;68.10;;;;;;5057550;28;20035;-77
2023/09/25 05:05:07;;;;;;;0.90;0.90;;;20.60;68.30;;;;;;5061352;28;20569;-77
2023/09/25 05:07:33;;;;;;;0.80;0.80;;;20.60;68.30;;;;;;5061571;28;20124;-77
2023/09/25 05:09:58;;;;;;;1.20;1.10;;;20.60;68.10;;;;;;5052411;28;20421;-77
2023/09/25 05:12:24;;;;;;;1.30;1.20;;;20.60;68.20;;;;;;5065163;28;20036;-76
2023/09/25 05:14:50;;;;;;;1.52;0.80;;;20.60;68.20;;;;;;5063169;28;20044;-77
2023/09/25 05:17:16;;;;;;;0.80;0.80;;;20.60;68.10;;;;;;5060185;28;20461;-77
2023/09/25 05:19:41;;;;;;;0.90;0.90;;;20.60;68.40;;;;;;4704681;28;10000214;-77
2023/09/25 05:22:07;;;;;;;0.73;0.73;;;20.60;68.10;;;;;;5058523;28;20041;-76
2023/09/25 05:24:32;;;;;;;1.00;1.00;;;20.60;68.20;;;;;;5060956;28;20045;-76
2023/09/25 05:26:58;;;;;;;1.00;1.00;;;20.60;68.30;;;;;;5052342;28;20045;-76
2023/09/25 05:29:24;;;;;;;1.48;1.38;;;20.60;68.10;;;;;;5058148;28;20135;-77
2023/09/25 05:31:49;;;;;;;0.90;0.90;;;20.60;68.30;;;;;;5048227;28;20045;-77
2023/09/25 05:34:15;;;;;;;0.90;0.90;;;20.60;68.30;;;;;;5060909;28;20135;-77
2023/09/25 05:36:41;;;;;;;1.10;1.10;;;20.60;68.30;;;;;;5061902;28;20048;-77
2023/09/25 05:39:08;;;;;;;1.00;1.00;;;20.60;68.40;;;;;;5052790;28;20037;-77
2023/09/25 05:41:34;;;;;;;0.88;0.88;;;20.60;68.40;;;;;;5051488;28;20044;-77
2023/09/25 05:43:59;;;;;;;0.80;0.80;;;20.60;68.40;;;;;;5051751;28;20423;-77
2023/09/25 05:46:25;;;;;;;0.80;0.80;;;20.60;68.40;;;;;;5060304;28;20545;-77
2023/09/25 05:48:53;;;;;;;0.98;0.98;;;20.60;68.40;;;;;;5057263;28;20154;-77
2023/09/25 05:51:19;;;;;;;0.90;0.90;;;20.70;68.50;;;;;;5057626;28;20056;-76
2023/09/25 05:53:44;;;;;;;0.95;0.95;;;20.60;68.60;;;;;;5062376;28;20041;-76
2023/09/25 05:56:10;;;;;;;0.73;0.73;;;20.60;68.50;;;;;;5057954;28;20059;-76
2023/09/25 05:58:37;;;;;;;0.90;0.90;;;20.60;68.50;;;;;;5050764;28;20040;-76
2023/09/25 06:01:02;;;;;;;0.90;0.90;;;20.60;68.50;;;;;;5056417;28;20082;-77
2023/09/25 06:03:28;;;;;;;1.10;1.00;;;20.60;68.40;;;;;;5054575;28;20069;-76
2023/09/25 06:05:53;;;;;;;1.02;0.93;;;20.70;70.00;;;;;;5086160;28;20052;-77
2023/09/25 06:08:19;;;;;;;1.25;1.15;;;20.60;70.00;;;;;;5061096;28;20041;-77
2023/09/25 06:10:45;;;;;;;1.77;1.40;;;20.60;72.70;;;;;;5060672;28;20048;-77
2023/09/25 06:13:11;;;;;;;1.45;1.35;;;20.60;73.20;;;;;;5062481;28;20491;-78
2023/09/25 06:15:37;;;;;;;1.40;1.30;;;20.60;73.50;;;;;;5058398;28;20098;-77
2023/09/25 06:18:09;;;;;;;1.27;1.17;;;20.50;74.30;;;;;;5057386;28;20052;-77
2023/09/25 06:20:39;;;;;;;2.33;1.33;;;20.50;74.30;;;;;;5065399;28;20040;-77
2023/09/25 06:23:05;;;;;;;2.55;1.50;;;20.50;75.20;;;;;;5062905;28;20045;-78
2023/09/25 06:25:32;;;;;;;2.60;1.52;;;20.50;74.60;;;;;;5061869;28;20044;-77
2023/09/25 06:27:57;;;;;;;2.25;1.55;;;20.60;74.60;;;;;;5062824;28;20588;-77
2023/09/25 06:30:24;;;;;;;2.92;1.70;;;20.50;75.30;;;;;;5056409;28;20041;-77
2023/09/25 06:32:49;;;;;;;1.73;1.45;;;20.60;75.40;;;;;;5062115;28;20522;-77
2023/09/25 06:35:15;;;;;;;1.50;1.40;;;20.60;75.70;;;;;;5061148;28;20056;-77
2023/09/25 06:37:41;;;;;;;3.35;1.40;;;20.50;75.50;;;;;;5051950;28;20079;-79
2023/09/25 06:40:09;;;;;;;3.25;1.60;;;20.50;75.40;;;;;;5054613;28;20049;-78
2023/09/25 06:42:37;;;;;;;2.28;1.60;;;20.50;75.40;;;;;;5059702;28;20037;-78
2023/09/25 06:45:03;;;;;;;3.15;1.70;;;20.50;76.10;;;;;;5061396;28;20135;-78
2023/09/25 06:47:29;;;;;;;3.88;1.83;;;20.50;76.50;;;;;;5057851;28;20132;-77
2023/09/25 06:49:54;;;;;;;2.22;1.90;;;20.50;76.90;;;;;;5062077;28;20131;-78
2023/09/25 06:52:20;;;;;;;3.38;2.10;;;20.50;77.00;;;;;;5060086;28;20041;-78
2023/09/25 06:54:45;;;;;;;3.13;1.90;;;20.50;77.40;;;;;;5061473;28;20419;-79
2023/09/25 06:57:11;;;;;;;4.43;1.83;;;20.50;77.60;;;;;;5061642;28;20048;-78
2023/09/25 06:59:37;;;;;;;4.65;1.63;;;20.50;77.90;;;;;;5059148;28;20057;-79
2023/09/25 07:02:03;;;;;;;2.88;1.90;;;20.50;77.60;;;;;;5059560;28;20059;-80
2023/09/25 07:04:28;;;;;;;2.35;2.05;;;20.40;78.20;;;;;;5055421;28;20045;-80
2023/09/25 07:06:54;;;;;;;4.45;1.90;;;20.40;77.90;;;;;;5058334;28;20040;-79
2023/09/25 07:09:22;;;;;;;4.07;1.98;;;20.40;77.80;;;;;;5063123;28;20040;-76
2023/09/25 07:11:47;;;;;;;3.08;1.75;;;20.50;77.90;;;;;;5082512;28;20062;-76
2023/09/25 07:14:13;;;;;;;3.42;1.65;;;20.50;78.30;;;;;;5057875;28;20045;-75
2023/09/25 07:16:38;;;;;;;3.30;1.63;;;20.40;78.40;;;;;;5063235;28;20075;-74
2023/09/25 07:19:04;;;;;;;4.03;1.60;;;20.50;78.50;;;;;;5058334;28;20077;-76
2023/09/25 07:21:30;;;;;;;3.95;2.15;;;20.50;78.60;;;;;;5059545;28;20063;-75
2023/09/25 07:23:55;;;;;;;3.00;1.63;;;20.50;78.20;;;;;;5043270;28;20036;-76
2023/09/25 07:26:21;;;;;;;3.45;2.05;;;20.60;78.10;;;;;;5061358;28;20045;-76
2023/09/25 07:28:49;;;;;;;3.92;2.00;;;20.50;78.50;;;;;;5058360;28;20053;-76
2023/09/25 07:31:19;;;;;;;3.10;1.67;;;20.50;78.60;;;;;;5060038;28;20036;-75
2023/09/25 07:33:45;;;;;;;4.05;1.83;;;20.50;78.50;;;;;;5058691;28;20071;-77
2023/09/25 07:36:11;;;;;;;2.85;2.03;;;20.50;77.80;;;;;;5061373;28;20448;-75
2023/09/25 07:38:37;;;;;;;2.67;1.73;;;20.50;78.60;;;;;;5057701;28;20033;-75
2023/09/25 07:41:02;;;;;;;3.55;1.70;;;20.40;79.10;;;;;;5053782;28;20044;-75
2023/09/25 07:43:29;;;;;;;4.47;1.77;;;20.50;79.30;;;;;;5058011;28;20044;-75
2023/09/25 07:45:55;;;;;;;3.50;2.10;;;20.50;79.40;;;;;;5061324;28;20057;-76
2023/09/25 07:48:21;;;;;;;6.32;2.53;;;20.50;79.00;;;;;;5062203;28;20405;-75
2023/09/25 07:50:46;;;;;;;2.65;1.73;;;20.50;79.30;;;;;;5064474;28;20047;-76
2023/09/25 07:53:12;;;;;;;2.85;1.65;;;20.50;79.00;;;;;;5045748;28;20058;-76
2023/09/25 07:55:38;;;;;;;4.22;1.77;;;20.50;79.60;;;;;;5040482;28;20658;-75
2023/09/25 07:58:04;;;;;;;2.80;1.60;;;20.60;79.10;;;;;;5061892;28;20085;-75
2023/09/25 08:00:37;;;;;;;4.80;2.10;;;20.60;79.40;;;;;;5068601;28;20519;-76
2023/09/25 08:03:05;;;;;;;3.75;1.60;;;20.50;79.40;;;;;;5057525;28;20132;-76
2023/09/25 08:05:31;;;;;;;3.75;2.05;;;20.50;79.40;;;;;;5062133;28;20471;-75
2023/09/25 08:07:56;;;;;;;3.55;2.10;;;20.50;79.80;;;;;;5059860;28;20582;-76
2023/09/25 08:10:22;;;;;;;3.40;1.88;;;20.60;79.90;;;;;;5059826;28;20457;-75
2023/09/25 08:12:47;;;;;;;2.30;1.50;;;20.50;80.10;;;;;;5057674;28;20041;-76
2023/09/25 08:15:13;;;;;;;2.83;1.55;;;20.60;80.10;;;;;;5086268;28;20041;-76
2023/09/25 08:17:43;;;;;;;2.28;1.88;;;20.60;80.40;;;;;;5063190;28;20090;-75
2023/09/25 08:20:20;;;;;;;2.60;1.63;;;20.60;80.50;;;;;;5043534;28;20052;-76
2023/09/25 08:22:47;;;;;;;3.22;2.22;;;20.50;80.40;;;;;;5060037;28;20040;-74
2023/09/25 08:25:13;;;;;;;2.38;2.08;;;20.50;80.70;;;;;;5058732;28;20067;-75
2023/09/25 08:27:39;;;;;;;4.20;2.08;;;20.50;80.80;;;;;;5062118;28;20041;-76
2023/09/25 08:30:05;;;;;;;4.15;1.90;;;20.50;80.60;;;;;;5057338;28;20052;-76
2023/09/25 08:32:31;;;;;;;2.97;1.88;;;20.50;80.70;;;;;;5058338;28;20790;-76
2023/09/25 08:34:57;;;;;;;3.42;1.80;;;20.60;80.70;;;;;;5055206;28;20190;-76
2023/09/25 08:37:24;;;;;;;2.70;1.77;;;20.60;80.50;;;;;;5060446;28;20098;-76
2023/09/25 08:39:51;;;;;;;3.63;2.22;;;20.60;81.10;;;;;;5025954;28;20140;-76
2023/09/25 08:42:16;;;;;;;4.18;1.92;;;20.60;81.00;;;;;;5053794;28;20105;-76
2023/09/25 08:44:42;;;;;;;2.65;2.17;;;20.60;81.40;;;;;;5074360;28;20041;-77
2023/09/25 08:47:08;;;;;;;4.15;1.83;;;20.60;81.50;;;;;;5044149;28;20518;-77
2023/09/25 08:49:34;;;;;;;2.35;1.52;;;20.60;81.70;;;;;;5058640;28;20041;-76
2023/09/25 08:51:59;;;;;;;4.35;2.22;;;20.50;81.30;;;;;;5040656;28;20051;-76
2023/09/25 08:54:25;;;;;;;1.38;1.20;;;20.50;81.90;;;;;;5036882;28;20037;-75
2023/09/25 08:56:50;;;;;;;3.25;1.70;;;20.60;81.90;;;;;;5057273;28;20071;-75
2023/09/25 08:59:16;;;;;;;3.97;1.75;;;20.60;82.10;;;;;;5061530;28;20041;-74
2023/09/25 09:01:42;;;;;;;3.80;1.63;;;20.60;81.70;;;;;;5043210;28;20071;-75
2023/09/25 09:04:09;;;;;;;3.92;1.83;;;20.60;81.20;;;;;;5057665;28;20041;-75
2023/09/25 09:06:35;;;;;;;2.65;1.40;;;20.60;81.50;;;;;;5058258;28;20143;-75
2023/09/25 09:09:01;;;;;;;3.95;1.73;;;20.60;81.50;;;;;;5059825;28;20048;-75
2023/09/25 09:11:27;;;;;;;5.78;1.88;;;20.60;81.50;;;;;;5059160;28;20075;-76
2023/09/25 09:13:52;;;;;;;1.75;1.40;;;20.60;81.50;;;;;;5056765;28;20151;-76
2023/09/25 09:16:19;;;;;;;2.15;1.30;;;20.60;81.20;;;;;;5046921;28;20469;-75
2023/09/25 09:18:45;;;;;;;2.47;1.38;;;20.60;80.10;;;;;;5059800;28;20573;-75
2023/09/25 09:21:23;;;;;;;2.15;1.40;;;20.60;81.50;;;;;;5039952;28;20093;-75
2023/09/25 09:23:49;;;;;;;2.05;1.38;;;20.60;81.90;;;;;;5060238;28;22270;-74
2023/09/25 09:26:14;;;;;;;2.80;1.50;;;20.60;81.40;;;;;;5037933;28;20135;-75
2023/09/25 09:28:43;;;;;;;1.42;1.30;;;20.60;79.60;;;;;;5055796;28;20154;-75
2023/09/25 09:31:10;;;;;;;2.42;1.40;;;20.70;80.10;;;;;;5057494;28;20040;-75
2023/09/25 09:33:43;;;;;;;3.30;1.38;;;20.70;81.30;;;;;;5058498;28;20060;-76
2023/09/25 09:36:09;;;;;;;2.38;1.40;;;20.70;79.70;;;;;;5062720;28;20067;-76
2023/09/25 09:38:36;;;;;;;3.38;1.80;;;20.70;79.90;;;;;;5058603;28;20509;-76
2023/09/25 09:41:03;;;;;;;2.45;1.73;;;20.70;79.80;;;;;;5076214;28;20044;-76
2023/09/25 09:43:29;;;;;;;3.85;1.77;;;20.70;79.80;;;;;;5072863;28;20112;-77
2023/09/25 09:45:54;;;;;;;3.58;1.85;;;20.70;79.50;;;;;;5061668;28;20136;-76
2023/09/25 09:48:20;;;;;;;3.30;1.50;;;20.70;79.30;;;;;;5061855;28;20102;-75
2023/09/25 09:50:48;;;;;;;3.05;1.88;;;20.70;79.10;;;;;;5082455;28;20059;-75
2023/09/25 09:53:15;;;;;;;2.65;1.48;;;20.70;78.80;;;;;;5065292;28;20041;-76
2023/09/25 09:55:41;;;;;;;1.60;1.30;;;20.70;78.40;;;;;;5045608;28;20069;-76
2023/09/25 09:58:06;;;;;;;2.05;1.10;;;20.70;78.10;;;;;;5075197;28;20131;-76
2023/09/25 10:00:32;;;;;;;2.72;1.70;;;20.80;78.10;;;;;;5047449;28;20037;-78
2023/09/25 10:02:58;;;;;;;2.83;1.05;;;20.80;77.80;;;;;;5048908;28;20379;-76
2023/09/25 10:05:23;;;;;;;1.13;1.02;;;20.80;77.50;;;;;;5052905;28;20037;-78
2023/09/25 10:08:06;;;;;;;1.30;1.20;;;20.80;77.20;;;;;;5050649;28;20051;-76
2023/09/25 10:10:35;;;;;;;2.22;1.50;;;20.90;76.90;;;;;;5056166;28;20090;-76
2023/09/25 10:13:01;;;;;;;1.67;1.10;;;20.90;76.90;;;;;;5064278;28;20047;-77
2023/09/25 10:15:26;;;;;;;2.13;1.38;;;20.90;76.60;;;;;;5063303;28;20048;-77
2023/09/25 10:17:53;;;;;;;2.28;1.30;;;20.90;76.40;;;;;;5067674;28;20456;-77
2023/09/25 10:20:30;;;;;;;2.65;1.25;;;21.00;76.70;;;;;;5068164;28;20059;-77
2023/09/25 10:23:09;;;;;;;1.23;1.10;;;21.00;76.30;;;;;;5066352;28;20056;-76
2023/09/25 10:25:50;;;;;;;1.15;0.90;;;21.00;76.30;;;;;;5060363;28;20151;-77
2023/09/25 10:28:30;;;;;;;2.15;1.13;;;20.90;76.10;;;;;;5061910;28;20197;-76
2023/09/25 10:31:03;;;;;;;2.35;1.23;;;21.00;75.80;;;;;;5062811;28;20040;-76
2023/09/25 10:33:31;;;;;;;1.85;1.30;;;21.00;75.60;;;;;;5066207;28;20064;-77
2023/09/25 10:36:04;;;;;;;1.42;1.10;;;21.00;75.70;;;;;;5059910;28;20040;-76
2023/09/25 10:38:32;;;;;;;1.13;1.02;;;21.00;75.30;;;;;;5067381;28;20107;-76
2023/09/25 10:41:02;;;;;;;1.48;1.00;;;21.00;75.20;;;;;;5062759;28;20036;-77
2023/09/25 10:43:28;;;;;;;1.67;1.10;;;21.00;75.00;;;;;;5065633;28;20047;-77
2023/09/25 10:45:54;;;;;;;1.20;1.10;;;21.10;75.00;;;;;;5066122;28;20410;-77
2023/09/25 10:48:20;;;;;;;2.15;1.10;;;21.00;75.10;;;;;;5064342;28;20048;-77
2023/09/25 10:50:47;;;;;;;1.50;1.08;;;21.00;74.80;;;;;;5069837;28;20131;-77
2023/09/25 10:53:16;;;;;;;2.00;1.20;;;21.00;74.70;;;;;;5078510;28;20409;-77
2023/09/25 10:55:42;;;;;;;0.82;0.82;;;21.00;74.80;;;;;;5063241;28;20040;-77
2023/09/25 10:58:08;;;;;;;1.00;0.90;;;21.00;74.60;;;;;;5060230;28;20032;-77
2023/09/25 11:00:37;;;;;;;1.50;1.23;;;21.00;74.40;;;;;;5061829;28;20079;-76
2023/09/25 11:03:03;;;;;;;1.75;1.17;;;21.00;74.50;;;;;;5065788;28;20079;-76
2023/09/25 11:05:32;;;;;;;1.77;1.42;;;21.00;74.60;;;;;;5065776;28;20528;-77
2023/09/25 11:07:58;;;;;;;1.45;0.95;;;21.00;74.40;;;;;;5063635;28;20048;-77
2023/09/25 11:10:32;;;;;;;3.30;1.20;;;21.00;74.10;;;;;;5068241;28;20072;-77
2023/09/25 11:12:57;;;;;;;1.80;1.10;;;21.00;74.20;;;;;;5060666;28;20574;-77
2023/09/25 11:15:25;;;;;;;1.17;0.95;;;21.00;74.20;;;;;;5059743;28;20682;-76
2023/09/25 11:17:51;;;;;;;1.05;0.93;;;21.00;73.80;;;;;;5063190;28;20072;-77
2023/09/25 11:20:20;;;;;;;1.10;1.00;;;21.10;73.80;;;;;;5060493;28;20076;-77
2023/09/25 11:22:49;;;;;;;1.10;0.93;;;21.10;73.80;;;;;;5064559;28;20040;-77
2023/09/25 11:25:15;;;;;;;2.15;1.20;;;21.10;73.70;;;;;;5062603;28;20047;-77
2023/09/25 11:27:52;;;;;;;0.82;0.80;;;21.10;73.70;;;;;;5062100;28;20044;-77
2023/09/25 11:30:18;;;;;;;1.65;1.00;;;21.10;73.80;;;;;;5066421;28;20048;-77
2023/09/25 11:32:43;;;;;;;2.05;1.08;;;21.10;73.50;;;;;;5066362;28;20040;-77
2023/09/25 11:35:12;;;;;;;1.15;1.00;;;21.10;73.80;;;;;;5061759;28;20522;-77
2023/09/25 11:37:53;;;;;;;1.67;0.88;;;21.10;73.30;;;;;;5061971;28;20090;-77
2023/09/25 11:40:19;;;;;;;0.93;0.85;;;21.10;73.40;;;;;;5060495;28;20047;-77
2023/09/25 11:42:45;;;;;;;1.00;0.90;;;21.10;73.60;;;;;;5063437;28;20033;-77
2023/09/25 11:45:13;;;;;;;1.20;0.80;;;21.10;73.40;;;;;;5067338;28;20041;-77
2023/09/25 11:47:39;;;;;;;1.10;0.63;;;21.10;73.40;;;;;;5069079;28;20040;-77
2023/09/25 11:50:05;;;;;;;1.10;0.90;;;21.10;73.00;;;;;;5059352;28;20490;-77
2023/09/25 11:52:32;;;;;;;1.70;0.90;;;21.10;73.10;;;;;;5063353;28;20075;-77
2023/09/25 11:54:57;;;;;;;1.35;1.17;;;21.10;73.30;;;;;;5061317;28;20514;-77
2023/09/25 11:57:23;;;;;;;1.52;1.13;;;21.10;73.30;;;;;;5051079;28;20048;-77
2023/09/25 11:59:49;;;;;;;1.00;1.00;;;21.10;73.00;;;;;;5064883;28;20033;-77
2023/09/25 12:02:14;;;;;;;1.63;1.00;;;21.10;72.90;;;;;;5061548;28;20090;-77
2023/09/25 12:04:42;;;;;;;1.90;1.00;;;21.10;72.90;;;;;;5064050;28;20040;-77
2023/09/25 12:07:08;;;;;;;1.08;0.73;;;21.10;72.80;;;;;;5060619;28;19920;-77
2023/09/25 12:09:34;;;;;;;0.73;0.73;;;21.10;73.30;;;;;;5062562;28;20036;-77
2023/09/25 12:12:00;;;;;;;1.52;0.85;;;21.10;72.90;;;;;;5068168;28;20047;-76
2023/09/25 12:14:26;;;;;;;1.05;0.80;;;21.10;72.90;;;;;;5065726;28;20045;-77
2023/09/25 12:16:52;;;;;;;1.35;0.80;;;21.10;73.00;;;;;;5066174;28;20040;-77
2023/09/25 12:19:17;;;;;;;0.70;0.70;;;21.10;72.70;;;;;;5061939;28;20048;-76
2023/09/25 12:21:44;;;;;;;0.80;0.80;;;21.10;72.60;;;;;;5062599;28;20041;-77
2023/09/25 12:24:11;;;;;;;0.60;0.60;;;21.10;72.60;;;;;;5060829;28;20040;-76
2023/09/25 12:26:37;;;;;;;0.70;0.70;;;21.10;72.50;;;;;;5065842;28;20131;-77
2023/09/25 12:29:02;;;;;;;0.65;0.65;;;21.10;72.60;;;;;;5091778;28;20506;-77
2023/09/25 12:31:28;;;;;;;1.10;0.82;;;21.20;72.60;;;;;;5064990;28;20053;-77
2023/09/25 12:33:54;;;;;;;1.42;0.77;;;21.20;72.40;;;;;;5062686;28;20056;-77
2023/09/25 12:36:20;;;;;;;1.48;0.70;;;21.10;72.40;;;;;;5063340;28;20037;-77
2023/09/25 12:38:45;;;;;;;1.27;1.08;;;21.20;72.30;;;;;;5066511;28;20045;-77
2023/09/25 12:41:11;;;;;;;0.98;0.77;;;21.20;72.50;;;;;;5061250;28;20494;-76